sensor_id;sensor_type;location;lat;lon;timestamp;P1;durP1;ratioP1;P2;durP2;ratioP2
43962;SDS011;29622;45.534;9.242;2022-10-18T00:01:34;73.65;;;35.67;;
43962;SDS011;29622;45.534;9.242;2022-10-18T00:07:06;65.35;;;33.00;;
43962;SDS011;29622;45.534;9.242;2022-10-18T00:12:13;67.95;;;33.60;;
43962;SDS011;29622;45.534;9.242;2022-10-18T00:17:23;66.97;;;35.67;;
43962;SDS011;29622;45.534;9.242;2022-10-18T00:22:26;68.30;;;33.35;;
43962;SDS011;29622;45.534;9.242;2022-10-18T00:27:28;69.85;;;33.88;;
43962;SDS011;29622;45.534;9.242;2022-10-18T00:33:13;70.63;;;32.63;;
43962;SDS011;29622;45.534;9.242;2022-10-18T00:38:42;69.82;;;33.05;;
43962;SDS011;29622;45.534;9.242;2022-10-18T00:50:00;64.07;;;33.33;;
43962;SDS011;29622;45.534;9.242;2022-10-18T01:01:43;63.15;;;31.77;;
43962;SDS011;29622;45.534;9.242;2022-10-18T01:39:47;63.17;;;32.33;;
43962;SDS011;29622;45.534;9.242;2022-10-18T01:46:14;64.53;;;31.27;;
43962;SDS011;29622;45.534;9.242;2022-10-18T01:52:21;69.70;;;32.72;;
43962;SDS011;29622;45.534;9.242;2022-10-18T02:16:30;60.72;;;30.25;;
43962;SDS011;29622;45.534;9.242;2022-10-18T02:29:13;62.03;;;30.13;;
43962;SDS011;29622;45.534;9.242;2022-10-18T02:35:23;70.20;;;33.33;;
43962;SDS011;29622;45.534;9.242;2022-10-18T03:00:50;70.72;;;32.65;;
43962;SDS011;29622;45.534;9.242;2022-10-18T03:06:45;79.35;;;37.30;;
43962;SDS011;29622;45.534;9.242;2022-10-18T03:12:40;71.65;;;33.42;;
43962;SDS011;29622;45.534;9.242;2022-10-18T03:18:15;63.55;;;32.70;;
43962;SDS011;29622;45.534;9.242;2022-10-18T03:35:46;65.07;;;29.58;;
43962;SDS011;29622;45.534;9.242;2022-10-18T04:00:31;65.10;;;29.95;;
43962;SDS011;29622;45.534;9.242;2022-10-18T04:06:27;59.97;;;32.92;;
43962;SDS011;29622;45.534;9.242;2022-10-18T04:19:07;62.55;;;30.40;;
43962;SDS011;29622;45.534;9.242;2022-10-18T04:25:01;62.30;;;30.13;;
43962;SDS011;29622;45.534;9.242;2022-10-18T04:49:24;56.67;;;27.77;;
43962;SDS011;29622;45.534;9.242;2022-10-18T04:54:57;61.15;;;30.58;;
43962;SDS011;29622;45.534;9.242;2022-10-18T05:00:17;55.67;;;28.77;;
43962;SDS011;29622;45.534;9.242;2022-10-18T05:06:13;52.83;;;27.15;;
43962;SDS011;29622;45.534;9.242;2022-10-18T05:12:37;65.97;;;31.88;;
43962;SDS011;29622;45.534;9.242;2022-10-18T05:17:41;51.97;;;28.63;;
43962;SDS011;29622;45.534;9.242;2022-10-18T05:23:08;26.88;;;14.52;;
43962;SDS011;29622;45.534;9.242;2022-10-18T05:29:23;46.13;;;22.77;;
43962;SDS011;29622;45.534;9.242;2022-10-18T05:35:08;48.15;;;26.10;;
43962;SDS011;29622;45.534;9.242;2022-10-18T05:46:43;49.50;;;25.42;;
43962;SDS011;29622;45.534;9.242;2022-10-18T05:52:32;57.00;;;27.67;;
43962;SDS011;29622;45.534;9.242;2022-10-18T06:15:25;43.15;;;23.10;;
43962;SDS011;29622;45.534;9.242;2022-10-18T06:20:26;47.67;;;25.13;;
43962;SDS011;29622;45.534;9.242;2022-10-18T06:32:06;55.53;;;26.52;;
43962;SDS011;29622;45.534;9.242;2022-10-18T06:43:30;49.78;;;25.83;;
43962;SDS011;29622;45.534;9.242;2022-10-18T06:48:31;47.00;;;24.80;;
43962;SDS011;29622;45.534;9.242;2022-10-18T06:53:37;54.78;;;26.85;;
43962;SDS011;29622;45.534;9.242;2022-10-18T06:58:50;55.50;;;27.48;;
43962;SDS011;29622;45.534;9.242;2022-10-18T07:04:00;59.40;;;25.50;;
43962;SDS011;29622;45.534;9.242;2022-10-18T07:09:13;47.47;;;24.40;;
43962;SDS011;29622;45.534;9.242;2022-10-18T07:14:17;55.40;;;25.60;;
43962;SDS011;29622;45.534;9.242;2022-10-18T07:19:21;49.83;;;23.75;;
43962;SDS011;29622;45.534;9.242;2022-10-18T07:24:22;44.45;;;24.25;;
43962;SDS011;29622;45.534;9.242;2022-10-18T07:29:23;49.10;;;23.80;;
43962;SDS011;29622;45.534;9.242;2022-10-18T07:34:24;47.47;;;22.52;;
43962;SDS011;29622;45.534;9.242;2022-10-18T07:39:34;43.92;;;23.00;;
43962;SDS011;29622;45.534;9.242;2022-10-18T07:44:38;42.92;;;23.33;;
43962;SDS011;29622;45.534;9.242;2022-10-18T07:49:47;44.03;;;24.23;;
43962;SDS011;29622;45.534;9.242;2022-10-18T07:55:03;49.50;;;24.15;;
43962;SDS011;29622;45.534;9.242;2022-10-18T09:30:03;33.88;;;17.55;;
43962;SDS011;29622;45.534;9.242;2022-10-18T09:36:04;33.63;;;18.30;;
43962;SDS011;29622;45.534;9.242;2022-10-18T09:41:09;36.58;;;17.75;;
43962;SDS011;29622;45.534;9.242;2022-10-18T09:52:33;27.05;;;14.85;;
43962;SDS011;29622;45.534;9.242;2022-10-18T10:42:33;25.90;;;15.15;;
43962;SDS011;29622;45.534;9.242;2022-10-18T10:48:24;23.85;;;12.15;;
43962;SDS011;29622;45.534;9.242;2022-10-18T10:54:38;19.88;;;12.68;;
43962;SDS011;29622;45.534;9.242;2022-10-18T11:00:35;24.38;;;12.32;;
43962;SDS011;29622;45.534;9.242;2022-10-18T11:12:19;20.45;;;11.10;;
43962;SDS011;29622;45.534;9.242;2022-10-18T13:00:50;32.83;;;16.30;;
43962;SDS011;29622;45.534;9.242;2022-10-18T16:57:22;42.33;;;23.23;;
43962;SDS011;29622;45.534;9.242;2022-10-18T17:02:53;42.97;;;18.50;;
43962;SDS011;29622;45.534;9.242;2022-10-18T17:21:40;42.67;;;24.63;;
43962;SDS011;29622;45.534;9.242;2022-10-18T17:51:54;54.08;;;25.88;;
43962;SDS011;29622;45.534;9.242;2022-10-18T17:57:32;47.60;;;25.85;;
43962;SDS011;29622;45.534;9.242;2022-10-18T18:09:05;53.13;;;27.35;;
43962;SDS011;29622;45.534;9.242;2022-10-18T18:20:31;50.65;;;27.58;;
43962;SDS011;29622;45.534;9.242;2022-10-18T18:25:33;58.53;;;28.20;;
43962;SDS011;29622;45.534;9.242;2022-10-18T18:30:37;53.45;;;27.80;;
43962;SDS011;29622;45.534;9.242;2022-10-18T18:35:53;48.50;;;27.75;;
43962;SDS011;29622;45.534;9.242;2022-10-18T18:52:01;54.13;;;28.47;;
43962;SDS011;29622;45.534;9.242;2022-10-18T18:57:15;51.65;;;27.27;;
43962;SDS011;29622;45.534;9.242;2022-10-18T19:02:18;62.97;;;29.80;;
43962;SDS011;29622;45.534;9.242;2022-10-18T19:07:25;61.47;;;28.98;;
43962;SDS011;29622;45.534;9.242;2022-10-18T19:12:26;58.63;;;30.20;;
43962;SDS011;29622;45.534;9.242;2022-10-18T19:17:27;70.18;;;30.45;;
43962;SDS011;29622;45.534;9.242;2022-10-18T19:22:31;53.45;;;29.23;;
43962;SDS011;29622;45.534;9.242;2022-10-18T19:27:32;53.70;;;28.23;;
43962;SDS011;29622;45.534;9.242;2022-10-18T19:32:41;52.53;;;27.83;;
43962;SDS011;29622;45.534;9.242;2022-10-18T19:37:42;55.30;;;28.13;;
43962;SDS011;29622;45.534;9.242;2022-10-18T19:42:46;59.80;;;29.20;;
43962;SDS011;29622;45.534;9.242;2022-10-18T19:47:47;59.25;;;30.75;;
43962;SDS011;29622;45.534;9.242;2022-10-18T19:52:53;61.63;;;29.83;;
43962;SDS011;29622;45.534;9.242;2022-10-18T19:57:54;63.38;;;29.77;;
43962;SDS011;29622;45.534;9.242;2022-10-18T20:02:59;56.35;;;29.20;;
43962;SDS011;29622;45.534;9.242;2022-10-18T20:08:06;54.67;;;30.80;;
43962;SDS011;29622;45.534;9.242;2022-10-18T20:13:10;58.13;;;28.58;;
43962;SDS011;29622;45.534;9.242;2022-10-18T20:18:15;50.33;;;27.52;;
43962;SDS011;29622;45.534;9.242;2022-10-18T20:23:30;49.90;;;28.63;;
43962;SDS011;29622;45.534;9.242;2022-10-18T20:28:45;59.80;;;28.63;;
43962;SDS011;29622;45.534;9.242;2022-10-18T20:34:17;51.97;;;28.05;;
43962;SDS011;29622;45.534;9.242;2022-10-18T20:39:30;48.92;;;27.55;;
43962;SDS011;29622;45.534;9.242;2022-10-18T20:44:51;53.30;;;28.33;;
43962;SDS011;29622;45.534;9.242;2022-10-18T20:51:10;53.72;;;27.58;;
43962;SDS011;29622;45.534;9.242;2022-10-18T20:56:56;55.00;;;27.35;;
43962;SDS011;29622;45.534;9.242;2022-10-18T21:15:06;49.22;;;27.60;;
43962;SDS011;29622;45.534;9.242;2022-10-18T21:20:49;69.32;;;26.50;;
43962;SDS011;29622;45.534;9.242;2022-10-18T21:46:13;56.72;;;26.90;;
43962;SDS011;29622;45.534;9.242;2022-10-18T21:51:42;54.67;;;27.25;;
43962;SDS011;29622;45.534;9.242;2022-10-18T22:03:53;58.30;;;28.17;;
43962;SDS011;29622;45.534;9.242;2022-10-18T22:21:56;50.58;;;27.33;;
43962;SDS011;29622;45.534;9.242;2022-10-18T22:27:10;59.60;;;30.98;;
43962;SDS011;29622;45.534;9.242;2022-10-18T22:39:17;51.53;;;28.58;;
43962;SDS011;29622;45.534;9.242;2022-10-18T23:10:05;53.80;;;25.48;;
43962;SDS011;29622;45.534;9.242;2022-10-18T23:21:05;51.97;;;26.27;;
43962;SDS011;29622;45.534;9.242;2022-10-18T23:26:24;43.15;;;23.65;;
43962;SDS011;29622;45.534;9.242;2022-10-18T23:44:06;37.50;;;23.58;;
43962;SDS011;29622;45.534;9.242;2022-10-18T23:50:17;49.17;;;23.23;;
43962;SDS011;29622;45.534;9.242;2022-10-18T23:55:20;44.80;;;23.65;;
